Time;durP1;ratioP1;P1;durP2;ratioP2;P2;SDS_P1;SDS_P2;PMS_P1;PMS_P2;Temp;Humidity;BMP_temperature;BMP_pressure;BME280_temperature;BME280_humidity;BME280_pressure;Samples;Min_cycle;Max_cycle;Signal;HPM_P1;HPM_P2
2021/06/22 00:00:33;;;;;;;8.00;4.13;;;12.00;99.90;;;;;;5087932;28;20511;-66
2021/06/22 00:02:59;;;;;;;11.05;4.95;;;12.00;99.90;;;;;;5087628;28;20028;-66
2021/06/22 00:05:27;;;;;;;9.15;4.65;;;12.00;99.90;;;;;;5090797;28;20051;-66
2021/06/22 00:07:55;;;;;;;8.70;4.93;;;12.00;99.90;;;;;;5087515;28;20036;-66
2021/06/22 00:10:24;;;;;;;12.55;5.47;;;12.00;99.90;;;;;;5087327;28;20023;-66
2021/06/22 00:12:51;;;;;;;7.75;3.90;;;12.00;99.90;;;;;;5092479;28;20032;-66
2021/06/22 00:15:20;;;;;;;13.18;5.10;;;12.00;99.90;;;;;;5090079;28;20036;-66
2021/06/22 00:17:47;;;;;;;10.48;4.78;;;12.00;99.90;;;;;;5084208;28;20127;-66
2021/06/22 00:20:13;;;;;;;14.55;4.32;;;12.00;99.90;;;;;;5087943;28;20510;-66
2021/06/22 00:22:40;;;;;;;8.77;4.65;;;12.00;99.90;;;;;;5088530;28;20404;-66
2021/06/22 00:25:09;;;;;;;15.85;5.88;;;11.90;99.90;;;;;;5086923;28;20044;-66
2021/06/22 00:27:35;;;;;;;15.30;6.05;;;11.90;99.90;;;;;;5089658;28;20106;-66
2021/06/22 00:30:01;;;;;;;9.65;5.18;;;12.00;99.90;;;;;;5088494;28;20123;-66
2021/06/22 00:32:27;;;;;;;12.15;5.35;;;11.90;99.90;;;;;;5087283;28;20044;-66
2021/06/22 00:34:53;;;;;;;10.23;5.10;;;11.90;99.90;;;;;;5088526;28;20528;-66
2021/06/22 00:37:19;;;;;;;10.45;5.30;;;11.90;99.90;;;;;;5089751;28;20039;-66
2021/06/22 00:39:46;;;;;;;7.10;4.35;;;11.90;99.90;;;;;;5087719;28;20040;-66
2021/06/22 00:42:13;;;;;;;7.88;4.65;;;11.90;99.90;;;;;;5088941;28;20047;-66
2021/06/22 00:44:45;;;;;;;6.32;4.50;;;11.90;99.90;;;;;;5087304;28;20028;-66
2021/06/22 00:47:11;;;;;;;11.38;6.18;;;11.90;99.90;;;;;;5085485;28;20043;-66
2021/06/22 00:49:36;;;;;;;11.55;4.90;;;11.90;99.90;;;;;;5090490;28;20067;-66
2021/06/22 00:52:03;;;;;;;12.30;4.78;;;11.90;99.90;;;;;;5087206;28;20039;-66
2021/06/22 00:54:28;;;;;;;8.00;4.28;;;11.90;99.90;;;;;;5088282;28;20039;-66
2021/06/22 00:56:55;;;;;;;12.93;6.07;;;12.00;99.90;;;;;;5090954;28;20096;-66
2021/06/22 00:59:21;;;;;;;12.10;5.53;;;11.90;99.90;;;;;;5087453;28;20032;-66
2021/06/22 01:01:47;;;;;;;11.23;5.15;;;12.00;99.90;;;;;;5091204;28;20036;-66
2021/06/22 01:04:13;;;;;;;13.00;4.60;;;12.00;99.90;;;;;;5088108;28;20040;-66
2021/06/22 01:06:38;;;;;;;8.93;5.50;;;12.00;99.90;;;;;;5086489;28;20048;-66
2021/06/22 01:09:05;;;;;;;14.98;5.68;;;12.10;99.90;;;;;;5087139;28;20036;-66
2021/06/22 01:11:31;;;;;;;13.93;5.88;;;12.10;99.90;;;;;;5086380;28;20146;-66
2021/06/22 01:13:56;;;;;;;8.93;4.55;;;12.10;99.90;;;;;;5087968;28;20118;-66
2021/06/22 01:16:24;;;;;;;9.55;5.18;;;12.20;99.90;;;;;;5086259;28;20047;-66
2021/06/22 01:18:57;;;;;;;8.77;4.40;;;12.20;99.90;;;;;;5089270;28;20063;-66
2021/06/22 01:21:24;;;;;;;12.82;4.40;;;12.20;99.90;;;;;;5086055;28;20040;-66
2021/06/22 01:23:50;;;;;;;10.07;5.13;;;12.30;99.90;;;;;;5088155;28;20390;-66
2021/06/22 01:26:15;;;;;;;12.88;5.25;;;12.30;99.90;;;;;;5088639;28;20050;-66
2021/06/22 01:28:42;;;;;;;10.45;4.45;;;12.30;99.90;;;;;;5086605;28;20044;-66
2021/06/22 01:31:11;;;;;;;8.27;4.82;;;12.30;99.90;;;;;;5089174;28;20040;-66
2021/06/22 01:33:37;;;;;;;9.48;4.55;;;12.40;99.90;;;;;;5088275;28;20044;-66
2021/06/22 01:36:04;;;;;;;11.52;4.97;;;12.40;99.90;;;;;;5086835;28;20595;-66
2021/06/22 01:38:30;;;;;;;10.73;5.20;;;12.50;99.90;;;;;;5089634;28;20457;-66
2021/06/22 01:40:56;;;;;;;8.85;4.38;;;12.50;99.90;;;;;;5090786;28;20538;-66
2021/06/22 01:43:25;;;;;;;12.95;4.88;;;12.60;99.90;;;;;;5086467;28;20040;-66
2021/06/22 01:45:51;;;;;;;13.02;4.53;;;12.50;99.90;;;;;;5089080;28;20044;-66
2021/06/22 01:48:17;;;;;;;11.18;5.20;;;12.60;99.90;;;;;;5088836;28;20040;-66
2021/06/22 01:50:44;;;;;;;14.57;4.88;;;12.60;99.90;;;;;;5088009;28;20596;-66
2021/06/22 01:53:10;;;;;;;10.10;5.10;;;12.60;99.90;;;;;;5089772;28;20119;-66
2021/06/22 01:55:39;;;;;;;10.90;4.95;;;12.70;99.90;;;;;;5088142;28;20143;-66
2021/06/22 01:58:14;;;;;;;14.48;6.25;;;12.60;99.90;;;;;;5088418;28;20051;-66
2021/06/22 02:00:42;;;;;;;13.85;5.20;;;12.70;99.90;;;;;;5082709;28;20512;-66
2021/06/22 02:03:14;;;;;;;13.82;5.20;;;12.70;99.90;;;;;;5086039;28;20123;-66
2021/06/22 02:05:40;;;;;;;8.18;4.95;;;12.70;99.90;;;;;;5083210;28;20036;-66
2021/06/22 02:08:05;;;;;;;12.55;5.85;;;12.70;99.90;;;;;;5086772;28;20063;-66
2021/06/22 02:10:31;;;;;;;11.45;6.25;;;12.80;99.90;;;;;;5086679;28;20032;-66
2021/06/22 02:12:57;;;;;;;14.07;6.38;;;12.70;99.90;;;;;;5083503;28;20074;-66
2021/06/22 02:15:23;;;;;;;18.60;6.10;;;12.80;99.90;;;;;;5082292;28;20040;-66
2021/06/22 02:17:49;;;;;;;14.98;6.20;;;12.80;99.90;;;;;;5083514;28;20480;-66
2021/06/22 02:20:15;;;;;;;15.85;6.72;;;12.80;99.90;;;;;;5081512;28;20043;-66
2021/06/22 02:22:41;;;;;;;12.23;6.50;;;12.70;99.90;;;;;;5083753;28;20043;-66
2021/06/22 02:25:08;;;;;;;13.63;7.35;;;12.70;99.90;;;;;;5081450;28;20032;-66
2021/06/22 02:27:34;;;;;;;13.88;7.90;;;12.70;99.90;;;;;;5085596;28;21312;-66
2021/06/22 02:30:00;;;;;;;12.07;7.18;;;12.60;99.90;;;;;;5084480;28;20062;-66
2021/06/22 02:32:28;;;;;;;14.50;8.02;;;12.50;99.90;;;;;;5083977;28;20130;-66
2021/06/22 02:34:53;;;;;;;11.93;7.80;;;12.50;99.90;;;;;;5082307;28;20089;-66
2021/06/22 02:37:19;;;;;;;15.63;8.35;;;12.50;99.90;;;;;;5083958;28;20032;-66
2021/06/22 02:39:46;;;;;;;13.73;9.00;;;12.40;99.90;;;;;;5081452;28;20047;-66
2021/06/22 02:42:12;;;;;;;15.50;8.88;;;12.40;99.90;;;;;;5085108;28;20123;-66
2021/06/22 02:44:38;;;;;;;15.15;9.30;;;12.40;99.90;;;;;;5084455;28;20049;-66
2021/06/22 02:47:04;;;;;;;16.52;9.55;;;12.40;99.90;;;;;;5083415;28;20046;-66
2021/06/22 02:49:30;;;;;;;15.32;9.98;;;12.40;99.90;;;;;;5083978;28;20478;-66
2021/06/22 02:51:57;;;;;;;13.32;9.07;;;12.30;99.90;;;;;;5081529;28;20097;-66
2021/06/22 02:54:24;;;;;;;14.50;9.27;;;12.30;99.90;;;;;;5083424;28;20040;-66
2021/06/22 02:56:50;;;;;;;15.60;9.70;;;12.20;99.90;;;;;;5080921;28;20037;-66
2021/06/22 02:59:16;;;;;;;14.95;10.00;;;12.30;99.90;;;;;;5080783;28;20058;-66
2021/06/22 03:01:42;;;;;;;15.05;9.55;;;12.20;99.90;;;;;;5082406;28;20032;-66
2021/06/22 03:04:08;;;;;;;20.45;10.07;;;12.20;99.90;;;;;;5082979;28;20450;-66
2021/06/22 03:06:33;;;;;;;23.63;9.68;;;12.20;99.90;;;;;;5084210;28;20133;-66
2021/06/22 03:08:59;;;;;;;25.83;10.20;;;12.20;99.90;;;;;;5083467;28;20069;-66
2021/06/22 03:11:25;;;;;;;19.23;9.60;;;12.10;99.90;;;;;;5080729;28;20303;-66
2021/06/22 03:13:51;;;;;;;15.18;9.52;;;12.10;99.90;;;;;;5083142;28;20032;-66
2021/06/22 03:16:16;;;;;;;13.70;8.68;;;12.10;99.90;;;;;;5081141;28;20118;-66
2021/06/22 03:18:42;;;;;;;14.82;9.65;;;12.10;99.90;;;;;;5083673;28;20036;-66
2021/06/22 03:21:08;;;;;;;13.77;9.30;;;12.10;99.90;;;;;;5116297;27;20032;-66
2021/06/22 03:23:33;;;;;;;17.13;9.93;;;12.00;99.90;;;;;;5080600;28;20149;-66
2021/06/22 03:25:59;;;;;;;17.88;9.90;;;12.00;99.90;;;;;;5081300;28;20032;-66
2021/06/22 03:28:25;;;;;;;15.68;10.32;;;12.00;99.90;;;;;;5082650;28;20032;-66
2021/06/22 03:30:51;;;;;;;20.98;11.00;;;12.00;99.90;;;;;;5084492;28;20559;-66
2021/06/22 03:33:18;;;;;;;13.38;9.65;;;12.00;99.90;;;;;;5084603;28;20052;-66
2021/06/22 03:35:44;;;;;;;16.45;10.10;;;12.00;99.90;;;;;;5082727;28;20044;-66
2021/06/22 03:38:10;;;;;;;13.35;9.30;;;11.90;99.90;;;;;;5088326;28;20039;-66
2021/06/22 03:40:36;;;;;;;15.43;10.02;;;11.90;99.90;;;;;;5087571;28;20798;-66
2021/06/22 03:43:01;;;;;;;16.55;10.07;;;11.80;99.90;;;;;;5088340;28;20086;-66
2021/06/22 03:45:28;;;;;;;14.77;9.30;;;11.90;99.90;;;;;;5087322;28;20075;-66
2021/06/22 03:47:54;;;;;;;12.50;8.48;;;11.80;99.90;;;;;;5083995;28;20151;-66
2021/06/22 03:50:20;;;;;;;13.93;9.00;;;11.80;99.90;;;;;;5085065;28;20040;-66
2021/06/22 03:52:46;;;;;;;9.65;8.00;;;11.80;99.90;;;;;;5087119;28;20047;-66
2021/06/22 03:55:27;;;;;;;14.45;8.57;;;11.80;99.90;;;;;;5087334;28;20043;-66
2021/06/22 03:58:00;;;;;;;12.63;8.98;;;11.80;99.90;;;;;;5087722;28;20120;-66
2021/06/22 04:00:28;;;;;;;15.80;10.50;;;11.70;99.90;;;;;;5085469;28;20537;-66
2021/06/22 04:02:56;;;;;;;14.70;9.73;;;11.70;99.90;;;;;;5088045;28;20123;-66
2021/06/22 04:05:22;;;;;;;17.30;10.77;;;11.70;99.90;;;;;;5084211;28;20045;-66
2021/06/22 04:07:48;;;;;;;14.85;10.32;;;11.80;99.90;;;;;;5086508;28;20095;-66
2021/06/22 04:10:14;;;;;;;15.50;9.60;;;11.70;99.90;;;;;;5086780;28;20036;-66
2021/06/22 04:12:41;;;;;;;14.63;7.70;;;11.70;99.90;;;;;;5087257;28;20596;-66
2021/06/22 04:15:07;;;;;;;13.77;8.77;;;11.80;99.90;;;;;;5087932;28;20085;-66
2021/06/22 04:17:33;;;;;;;11.93;8.43;;;11.80;99.90;;;;;;5086555;28;20036;-66
2021/06/22 04:19:59;;;;;;;11.13;8.77;;;11.80;99.90;;;;;;5087305;28;20084;-66
2021/06/22 04:22:25;;;;;;;13.70;8.65;;;11.90;99.90;;;;;;5085462;28;20039;-66
2021/06/22 04:24:50;;;;;;;15.85;10.30;;;11.90;99.90;;;;;;5087089;28;20043;-66
2021/06/22 04:27:17;;;;;;;17.95;11.68;;;11.90;99.90;;;;;;5084717;28;20082;-66
2021/06/22 04:29:43;;;;;;;13.73;11.50;;;11.90;99.90;;;;;;5086828;28;20032;-66
2021/06/22 04:32:09;;;;;;;21.08;13.13;;;12.00;99.90;;;;;;5087656;28;20451;-66
2021/06/22 04:34:36;;;;;;;16.55;12.55;;;12.00;99.90;;;;;;5087792;28;20058;-66
2021/06/22 04:37:02;;;;;;;18.40;11.65;;;12.00;99.90;;;;;;5083484;28;20557;-66
2021/06/22 04:39:28;;;;;;;21.00;12.10;;;12.00;99.90;;;;;;5088281;28;20494;-66
2021/06/22 04:41:53;;;;;;;18.75;11.68;;;12.10;99.90;;;;;;5085324;28;20109;-66
2021/06/22 04:44:19;;;;;;;10.82;8.23;;;12.10;99.90;;;;;;5082226;28;20135;-66
2021/06/22 04:46:48;;;;;;;9.07;7.82;;;12.10;99.90;;;;;;5081662;28;20058;-66
2021/06/22 04:49:14;;;;;;;11.10;8.45;;;12.20;99.90;;;;;;5082822;28;20410;-66
2021/06/22 04:51:40;;;;;;;11.20;8.20;;;12.30;99.90;;;;;;5088061;28;20032;-66
2021/06/22 04:54:08;;;;;;;9.27;7.45;;;12.50;99.90;;;;;;5084861;28;20402;-66
2021/06/22 04:56:34;;;;;;;12.95;8.75;;;12.80;99.90;;;;;;5085339;28;20044;-66
2021/06/22 04:59:00;;;;;;;11.10;7.20;;;13.40;99.90;;;;;;5082070;28;20082;-66
2021/06/22 05:01:27;;;;;;;9.63;7.32;;;14.30;99.90;;;;;;5082076;28;20040;-66
2021/06/22 05:03:53;;;;;;;8.98;6.53;;;15.20;99.90;;;;;;5083781;28;20033;-66
2021/06/22 05:06:19;;;;;;;8.65;7.50;;;15.90;99.90;;;;;;5080635;28;20050;-66
2021/06/22 05:08:45;;;;;;;13.18;8.88;;;16.40;99.90;;;;;;5084523;28;20039;-66
2021/06/22 05:11:11;;;;;;;19.10;8.77;;;16.40;99.90;;;;;;5083342;28;20054;-66
2021/06/22 05:13:37;;;;;;;14.70;8.80;;;16.40;99.90;;;;;;5085724;28;20118;-66
2021/06/22 05:16:03;;;;;;;13.50;8.90;;;16.30;99.90;;;;;;5084391;28;20047;-66
2021/06/22 05:18:29;;;;;;;12.90;8.95;;;16.40;99.90;;;;;;5085806;28;20042;-66
2021/06/22 05:20:55;;;;;;;14.13;8.52;;;16.30;99.90;;;;;;5083871;28;20115;-66
2021/06/22 05:23:21;;;;;;;16.63;8.77;;;16.30;99.90;;;;;;5085113;28;20032;-66
2021/06/22 05:25:46;;;;;;;12.57;9.50;;;16.30;99.90;;;;;;5086017;28;20032;-66
2021/06/22 05:28:12;;;;;;;11.63;8.52;;;16.30;99.90;;;;;;5085581;28;20044;-66
2021/06/22 05:30:38;;;;;;;15.02;8.13;;;16.40;99.90;;;;;;5085116;28;20043;-66
2021/06/22 05:33:04;;;;;;;15.25;8.70;;;16.50;99.90;;;;;;5082664;28;20512;-66
2021/06/22 05:35:32;;;;;;;15.77;8.82;;;16.60;99.90;;;;;;5084526;28;20097;-66
2021/06/22 05:37:57;;;;;;;14.05;9.05;;;16.80;99.70;;;;;;5086000;28;20111;-66
2021/06/22 05:40:24;;;;;;;17.83;8.15;;;16.80;99.60;;;;;;5082909;28;20150;-66
2021/06/22 05:42:50;;;;;;;14.80;8.85;;;17.00;99.20;;;;;;5083194;28;20035;-66
2021/06/22 05:45:16;;;;;;;12.25;8.55;;;17.10;99.00;;;;;;5084192;28;20047;-66
2021/06/22 05:47:42;;;;;;;11.38;8.43;;;17.20;98.80;;;;;;5086067;28;20543;-67
2021/06/22 05:50:08;;;;;;;11.93;7.70;;;17.40;98.60;;;;;;5085548;28;20166;-66
2021/06/22 05:52:34;;;;;;;12.50;7.78;;;17.50;98.40;;;;;;5085249;28;20074;-66
2021/06/22 05:55:00;;;;;;;18.20;8.07;;;17.80;98.40;;;;;;5085156;28;20502;-66
2021/06/22 05:57:26;;;;;;;11.68;6.85;;;18.10;98.10;;;;;;5084654;28;20064;-66
2021/06/22 05:59:51;;;;;;;11.77;6.63;;;18.40;97.40;;;;;;5082413;28;20773;-66
2021/06/22 06:02:17;;;;;;;13.82;6.90;;;18.60;96.70;;;;;;5081580;28;20085;-66
2021/06/22 06:04:43;;;;;;;14.13;7.28;;;18.80;95.70;;;;;;5080896;28;20428;-66
2021/06/22 06:07:09;;;;;;;14.52;7.15;;;18.90;95.60;;;;;;5084753;28;20420;-66
2021/06/22 06:09:34;;;;;;;13.30;6.60;;;19.00;95.60;;;;;;5083383;28;20580;-66
2021/06/22 06:12:00;;;;;;;12.73;6.50;;;19.10;95.60;;;;;;5083465;28;20063;-66
2021/06/22 06:14:26;;;;;;;14.60;6.38;;;19.30;95.20;;;;;;5082442;28;20395;-66
2021/06/22 06:16:52;;;;;;;14.77;5.93;;;19.30;94.80;;;;;;5083030;28;20052;-66
2021/06/22 06:19:18;;;;;;;10.38;5.72;;;19.30;94.40;;;;;;5082305;28;20493;-66
2021/06/22 06:21:45;;;;;;;9.82;5.30;;;19.40;94.30;;;;;;5080648;28;20040;-66
2021/06/22 06:24:11;;;;;;;13.23;5.50;;;19.50;94.50;;;;;;5083919;28;20044;-66
2021/06/22 06:29:31;;;;;;;11.03;5.47;;;19.50;93.30;;;;;;5086706;28;20059;-66
2021/06/22 06:31:57;;;;;;;10.60;5.68;;;19.60;93.80;;;;;;5080753;28;20638;-66
2021/06/22 06:34:23;;;;;;;10.75;4.75;;;19.50;93.00;;;;;;5084828;28;20082;-66
2021/06/22 06:36:49;;;;;;;15.32;5.15;;;19.40;93.30;;;;;;5084282;28;20131;-66
2021/06/22 06:39:15;;;;;;;8.05;4.72;;;19.40;93.50;;;;;;5082630;28;20163;-66
2021/06/22 06:41:41;;;;;;;13.82;5.38;;;19.50;93.60;;;;;;5083739;28;20032;-66
2021/06/22 06:44:07;;;;;;;10.98;5.30;;;19.40;92.80;;;;;;5083496;28;20036;-66
2021/06/22 06:46:33;;;;;;;22.27;4.75;;;19.50;93.00;;;;;;5081078;28;20513;-66
2021/06/22 06:49:02;;;;;;;20.00;5.15;;;19.60;93.00;;;;;;5082519;28;20039;-66
2021/06/22 06:51:29;;;;;;;10.80;4.97;;;19.60;92.60;;;;;;5082442;28;20047;-66
2021/06/22 06:53:55;;;;;;;11.68;4.38;;;19.60;92.00;;;;;;5081519;28;20036;-66
2021/06/22 06:56:21;;;;;;;11.23;4.55;;;19.70;91.90;;;;;;5083050;28;20093;-66
2021/06/22 06:58:50;;;;;;;14.98;5.10;;;19.90;92.10;;;;;;5086319;28;20040;-66
2021/06/22 07:01:16;;;;;;;10.70;4.20;;;19.90;90.80;;;;;;5083004;28;20054;-66
2021/06/22 07:03:44;;;;;;;12.07;4.28;;;20.00;90.50;;;;;;5084692;28;20044;-67
2021/06/22 07:06:13;;;;;;;5.80;3.55;;;19.80;90.00;;;;;;5083954;28;20073;-66
2021/06/22 07:08:40;;;;;;;8.55;3.40;;;19.60;90.30;;;;;;5087159;28;20487;-66
2021/06/22 07:11:06;;;;;;;11.10;4.13;;;19.60;91.50;;;;;;5088538;28;20320;-66
2021/06/22 07:13:32;;;;;;;10.55;4.38;;;19.60;91.80;;;;;;5088966;28;20039;-66
2021/06/22 07:16:02;;;;;;;11.32;4.18;;;19.60;91.90;;;;;;5086926;28;20051;-66
2021/06/22 07:18:31;;;;;;;13.68;4.10;;;19.60;92.20;;;;;;5119233;27;20501;-66
2021/06/22 07:20:59;;;;;;;13.38;4.75;;;19.80;92.00;;;;;;5086970;28;20032;-66
2021/06/22 07:23:25;;;;;;;10.23;4.10;;;20.10;91.50;;;;;;5086200;28;20044;-66
2021/06/22 07:25:51;;;;;;;13.23;3.97;;;20.00;90.40;;;;;;5088242;28;20410;-66
2021/06/22 07:28:18;;;;;;;11.57;4.82;;;19.90;90.20;;;;;;5085944;28;20151;-66
2021/06/22 07:30:44;;;;;;;8.40;3.15;;;19.80;90.90;;;;;;5087981;28;20084;-66
2021/06/22 07:33:10;;;;;;;12.20;4.22;;;19.90;90.50;;;;;;5086659;28;20034;-66
2021/06/22 07:35:36;;;;;;;10.60;3.05;;;19.90;91.20;;;;;;5118682;27;20413;-66
2021/06/22 07:38:04;;;;;;;12.35;4.07;;;19.80;91.60;;;;;;5086340;28;20044;-66
2021/06/22 07:40:49;;;;;;;10.82;2.80;;;19.90;90.60;;;;;;5086102;28;20058;-66
2021/06/22 07:43:16;;;;;;;10.15;3.25;;;19.50;89.20;;;;;;5086999;28;20027;-66
2021/06/22 07:45:42;;;;;;;10.20;3.60;;;19.10;90.10;;;;;;5084892;28;20174;-66
2021/06/22 07:48:09;;;;;;;10.45;3.03;;;19.00;91.70;;;;;;5087854;28;20035;-66
2021/06/22 07:50:35;;;;;;;7.75;2.60;;;19.20;92.40;;;;;;5083460;28;20036;-66
2021/06/22 07:53:02;;;;;;;12.13;3.53;;;19.30;92.10;;;;;;5086418;28;20595;-66
2021/06/22 07:55:31;;;;;;;9.23;2.78;;;19.20;92.00;;;;;;5085893;28;20032;-66
2021/06/22 07:57:57;;;;;;;9.73;3.67;;;19.20;92.30;;;;;;5088017;28;20131;-66
2021/06/22 08:00:44;;;;;;;12.63;3.30;;;19.30;92.80;;;;;;5086275;28;20115;-66
2021/06/22 08:03:11;;;;;;;9.82;2.90;;;19.30;92.50;;;;;;5085987;28;20992;-66
2021/06/22 08:05:37;;;;;;;6.93;2.80;;;19.10;91.50;;;;;;5088671;28;20047;-66
2021/06/22 08:08:04;;;;;;;10.70;2.92;;;19.00;92.80;;;;;;5088333;28;20430;-66
2021/06/22 08:10:30;;;;;;;9.13;3.00;;;19.20;93.50;;;;;;5091432;28;20040;-66
2021/06/22 08:12:57;;;;;;;11.05;2.72;;;19.50;92.40;;;;;;5088505;28;20101;-66
2021/06/22 08:15:24;;;;;;;13.45;3.47;;;19.40;91.30;;;;;;5086701;28;20048;-66
2021/06/22 08:17:50;;;;;;;13.73;3.00;;;19.30;91.30;;;;;;5082098;28;20515;-66
2021/06/22 08:20:16;;;;;;;12.77;3.15;;;19.30;91.70;;;;;;5086312;28;20477;-66
2021/06/22 08:22:42;;;;;;;11.00;3.40;;;19.30;90.90;;;;;;5086795;28;20090;-66
2021/06/22 08:25:09;;;;;;;12.52;3.30;;;19.20;92.40;;;;;;5124955;27;20050;-66
2021/06/22 08:27:35;;;;;;;9.40;3.28;;;19.30;92.60;;;;;;5086978;28;20050;-66
2021/06/22 08:30:02;;;;;;;7.97;2.15;;;19.40;91.60;;;;;;5087883;28;20429;-66
2021/06/22 08:32:28;;;;;;;7.05;2.20;;;19.60;92.30;;;;;;5091052;28;20027;-66
2021/06/22 08:34:56;;;;;;;8.13;2.30;;;19.50;89.40;;;;;;5091959;28;20051;-66
2021/06/22 08:37:22;;;;;;;11.25;3.28;;;19.20;90.70;;;;;;5088623;28;20048;-66
2021/06/22 08:39:48;;;;;;;7.45;2.65;;;18.90;89.00;;;;;;5086292;28;20036;-66
2021/06/22 08:42:16;;;;;;;7.55;2.30;;;18.70;91.40;;;;;;5090670;28;20044;-66
2021/06/22 08:44:45;;;;;;;10.63;3.10;;;18.80;91.90;;;;;;5084696;28;20652;-66
2021/06/22 08:47:12;;;;;;;10.45;2.35;;;18.90;92.30;;;;;;5089698;28;20047;-66
2021/06/22 08:49:39;;;;;;;9.57;2.35;;;19.20;90.90;;;;;;5085757;28;20040;-66
2021/06/22 08:52:08;;;;;;;6.80;1.95;;;19.20;89.10;;;;;;5084407;28;20040;-66
2021/06/22 08:54:34;;;;;;;10.52;2.40;;;18.90;88.20;;;;;;5077499;28;20047;-66
2021/06/22 08:57:01;;;;;;;8.80;2.92;;;18.80;91.10;;;;;;5089514;28;20505;-66
2021/06/22 08:59:27;;;;;;;6.03;1.95;;;18.70;91.70;;;;;;5087679;28;20394;-66
2021/06/22 09:01:53;;;;;;;8.93;2.03;;;18.70;92.20;;;;;;5091423;28;20494;-66
2021/06/22 09:04:19;;;;;;;6.57;2.22;;;18.70;92.00;;;;;;5088019;28;20047;-66
2021/06/22 09:06:44;;;;;;;6.53;1.98;;;18.70;91.70;;;;;;5087208;28;20131;-66
2021/06/22 09:09:11;;;;;;;10.65;2.88;;;18.80;92.10;;;;;;5120154;27;20088;-66
2021/06/22 09:11:37;;;;;;;10.60;2.63;;;19.10;92.20;;;;;;5090959;28;20070;-66
2021/06/22 09:14:05;;;;;;;13.15;2.75;;;18.90;91.60;;;;;;5088089;28;20046;-66
2021/06/22 09:16:32;;;;;;;9.35;2.30;;;18.90;91.60;;;;;;5087203;28;20051;-66
2021/06/22 09:19:04;;;;;;;12.00;3.20;;;18.70;90.80;;;;;;5086156;28;20044;-66
2021/06/22 09:21:39;;;;;;;9.60;3.25;;;18.60;90.80;;;;;;5088406;28;20085;-66
2021/06/22 09:24:18;;;;;;;8.05;2.50;;;18.40;91.00;;;;;;5090074;28;20027;-66
2021/06/22 09:26:45;;;;;;;8.63;2.22;;;18.40;91.50;;;;;;5088084;28;20527;-66
2021/06/22 09:29:14;;;;;;;4.88;1.90;;;18.40;91.70;;;;;;5084888;28;20652;-66
2021/06/22 09:31:58;;;;;;;8.57;2.20;;;18.40;91.70;;;;;;5086406;28;20036;-66
2021/06/22 09:34:25;;;;;;;10.23;2.00;;;18.40;91.80;;;;;;5091606;28;20589;-66
2021/06/22 09:37:07;;;;;;;7.32;3.03;;;18.40;92.10;;;;;;5085654;28;20032;-66
2021/06/22 09:39:33;;;;;;;5.13;2.00;;;18.30;91.80;;;;;;5085466;28;20039;-66
2021/06/22 09:42:00;;;;;;;6.82;2.25;;;18.10;90.00;;;;;;5087534;28;20085;-66
2021/06/22 09:44:28;;;;;;;7.57;2.33;;;18.30;90.00;;;;;;5089366;28;20044;-66
2021/06/22 09:46:59;;;;;;;6.15;1.75;;;18.60;87.20;;;;;;5084236;28;20044;-66
2021/06/22 09:49:27;;;;;;;7.22;1.95;;;18.90;87.10;;;;;;5081826;28;20043;-66
2021/06/22 09:51:58;;;;;;;8.48;2.42;;;19.20;88.50;;;;;;5089897;28;20051;-66
2021/06/22 09:54:24;;;;;;;8.55;2.10;;;19.50;87.00;;;;;;5085591;28;20081;-66
2021/06/22 09:57:06;;;;;;;8.35;1.75;;;19.60;85.30;;;;;;5090049;28;20730;-66
2021/06/22 10:00:04;;;;;;;5.88;2.10;;;19.40;81.30;;;;;;5091369;28;20032;-66
2021/06/22 10:02:46;;;;;;;7.32;2.47;;;19.30;81.50;;;;;;5089948;28;20050;-66
2021/06/22 10:05:16;;;;;;;8.00;2.28;;;19.00;84.80;;;;;;5099095;27;20614;-66
2021/06/22 10:07:42;;;;;;;8.10;2.20;;;18.80;86.60;;;;;;5086429;28;20123;-66
2021/06/22 10:10:09;;;;;;;5.45;1.80;;;18.60;88.60;;;;;;5086034;28;20425;-66
2021/06/22 10:12:40;;;;;;;10.10;2.30;;;18.50;87.50;;;;;;5087261;28;20454;-66
2021/06/22 10:15:07;;;;;;;7.63;2.08;;;18.40;88.20;;;;;;5088529;28;20100;-66
2021/06/22 10:17:33;;;;;;;9.82;2.25;;;18.40;90.20;;;;;;5083195;28;20043;-66
2021/06/22 10:20:02;;;;;;;6.70;1.98;;;18.40;89.80;;;;;;5085946;28;20048;-66
2021/06/22 10:22:32;;;;;;;5.93;1.65;;;18.50;90.10;;;;;;5087889;28;20044;-66
2021/06/22 10:25:00;;;;;;;9.48;2.00;;;18.60;86.70;;;;;;5084035;28;20032;-66
2021/06/22 10:27:27;;;;;;;11.35;2.92;;;18.60;88.70;;;;;;5080140;28;20082;-66
2021/06/22 10:29:54;;;;;;;9.27;2.20;;;18.70;90.30;;;;;;5083503;28;20097;-66
2021/06/22 10:32:23;;;;;;;8.13;2.08;;;18.60;89.40;;;;;;5081928;28;20508;-66
2021/06/22 10:34:52;;;;;;;7.10;2.72;;;18.50;88.20;;;;;;5083176;28;20051;-66
2021/06/22 10:37:35;;;;;;;8.10;2.47;;;18.40;87.70;;;;;;5087311;28;20044;-66
2021/06/22 10:40:04;;;;;;;11.82;2.55;;;18.30;88.50;;;;;;5088111;28;20054;-66
2021/06/22 10:42:44;;;;;;;5.15;1.95;;;18.20;90.50;;;;;;5083563;28;20093;-66
2021/06/22 10:45:12;;;;;;;8.60;2.08;;;18.10;89.80;;;;;;5084227;28;20036;-66
2021/06/22 10:47:42;;;;;;;8.60;2.50;;;18.00;89.90;;;;;;5086009;28;20050;-66
2021/06/22 10:50:23;;;;;;;12.93;2.40;;;17.90;90.90;;;;;;5085074;28;20067;-66
2021/06/22 10:53:00;;;;;;;8.50;2.83;;;17.90;91.30;;;;;;5080646;28;20402;-66
2021/06/22 10:55:31;;;;;;;11.40;2.47;;;17.80;91.50;;;;;;5084727;28;20050;-66
2021/06/22 10:58:00;;;;;;;11.45;3.00;;;17.80;93.00;;;;;;5083834;28;20074;-66
2021/06/22 11:00:28;;;;;;;7.18;2.63;;;17.60;92.40;;;;;;5087080;28;20559;-66
2021/06/22 11:03:00;;;;;;;14.32;2.92;;;17.50;93.30;;;;;;5085140;28;20454;-66
2021/06/22 11:05:27;;;;;;;8.10;2.67;;;17.60;94.10;;;;;;5085472;28;20075;-66
2021/06/22 11:08:08;;;;;;;9.23;2.88;;;17.50;93.40;;;;;;5081183;28;20434;-66
2021/06/22 11:10:37;;;;;;;9.57;3.10;;;17.50;93.60;;;;;;5085174;28;20040;-66
2021/06/22 11:13:04;;;;;;;8.65;3.30;;;17.50;93.10;;;;;;5084505;28;20036;-66
2021/06/22 11:15:51;;;;;;;12.25;2.42;;;17.50;94.10;;;;;;5085049;28;20050;-66
2021/06/22 11:18:20;;;;;;;16.05;3.55;;;17.60;94.90;;;;;;5087037;28;20085;-66
2021/06/22 11:21:04;;;;;;;13.05;4.05;;;17.60;95.00;;;;;;5085222;28;20044;-66
2021/06/22 11:23:31;;;;;;;7.80;3.13;;;17.60;94.60;;;;;;5086448;28;20119;-65
2021/06/22 11:26:02;;;;;;;10.98;2.53;;;17.70;94.60;;;;;;5082433;28;20474;-66
2021/06/22 11:28:48;;;;;;;12.93;3.42;;;17.80;94.40;;;;;;5083255;28;20043;-66
2021/06/22 11:31:36;;;;;;;11.75;3.88;;;17.80;94.20;;;;;;5083464;28;20047;-66
2021/06/22 11:34:14;;;;;;;12.98;3.20;;;17.90;94.20;;;;;;5083176;28;20044;-66
2021/06/22 11:36:43;;;;;;;11.02;2.80;;;18.00;94.20;;;;;;5083260;28;20048;-66
2021/06/22 11:39:21;;;;;;;8.15;3.00;;;18.00;93.90;;;;;;5090111;28;20129;-66
2021/06/22 11:42:12;;;;;;;15.38;4.55;;;18.10;93.70;;;;;;5087901;28;20039;-66
2021/06/22 11:44:46;;;;;;;12.05;3.60;;;18.20;93.90;;;;;;5089124;28;20547;-66
2021/06/22 11:47:24;;;;;;;7.50;3.30;;;18.30;94.10;;;;;;5083842;28;20039;-66
2021/06/22 11:50:11;;;;;;;8.95;2.92;;;18.50;93.90;;;;;;5084137;28;20071;-65
2021/06/22 11:52:42;;;;;;;12.40;3.60;;;18.60;93.60;;;;;;5080220;28;20047;-66
2021/06/22 11:55:17;;;;;;;11.13;3.65;;;18.70;93.40;;;;;;5088729;28;20082;-66
2021/06/22 11:57:53;;;;;;;9.57;3.07;;;18.90;92.90;;;;;;5089253;28;20040;-66
2021/06/22 12:00:32;;;;;;;9.20;3.28;;;19.10;92.20;;;;;;5088139;28;20119;-65
2021/06/22 12:03:07;;;;;;;13.48;4.10;;;19.10;91.20;;;;;;5090526;28;20387;-66
2021/06/22 12:05:35;;;;;;;9.90;3.10;;;19.00;91.80;;;;;;5090991;28;20036;-66
2021/06/22 12:08:09;;;;;;;12.43;3.00;;;19.10;92.20;;;;;;5087336;28;20046;-66
2021/06/22 12:10:48;;;;;;;8.93;3.35;;;19.10;91.70;;;;;;5090399;28;20051;-66
2021/06/22 12:13:39;;;;;;;6.93;3.08;;;19.20;92.30;;;;;;5087946;28;20071;-66
2021/06/22 12:16:20;;;;;;;7.25;3.53;;;19.30;91.40;;;;;;5085639;28;20405;-66
2021/06/22 12:18:46;;;;;;;8.60;3.28;;;19.40;91.50;;;;;;5089550;28;20068;-66
2021/06/22 12:21:12;;;;;;;7.78;3.40;;;19.50;90.90;;;;;;5084975;28;20040;-66
2021/06/22 12:23:41;;;;;;;12.50;4.30;;;19.30;90.20;;;;;;5088861;28;20121;-66
2021/06/22 12:26:06;;;;;;;11.48;3.97;;;19.20;90.00;;;;;;5095931;28;20044;-66
2021/06/22 12:28:34;;;;;;;7.63;3.10;;;19.20;90.90;;;;;;5083300;28;20043;-66
2021/06/22 12:31:02;;;;;;;10.23;4.13;;;18.90;86.90;;;;;;5121171;27;20048;-65
2021/06/22 12:33:30;;;;;;;10.48;3.28;;;18.70;90.60;;;;;;5088465;28;20399;-65
2021/06/22 12:36:04;;;;;;;10.15;3.28;;;18.60;88.90;;;;;;5091330;28;20035;-65
2021/06/22 12:38:30;;;;;;;10.82;4.13;;;18.40;88.40;;;;;;5086686;28;20500;-65
2021/06/22 12:41:00;;;;;;;11.52;4.22;;;18.40;89.00;;;;;;5086508;28;20114;-65
2021/06/22 12:43:42;;;;;;;10.57;3.88;;;18.50;91.90;;;;;;5085810;28;20044;-65
2021/06/22 12:46:10;;;;;;;8.50;3.78;;;18.60;92.30;;;;;;5089120;28;20043;-65
2021/06/22 12:48:36;;;;;;;9.27;3.78;;;18.60;90.90;;;;;;5088671;28;20477;-65